createdAt,value
2018-07-02T00:00:25.746Z,63.29
2018-07-02T00:02:54.856Z,62.87
2018-07-02T00:05:24.988Z,63.00
2018-07-02T00:07:54.110Z,63.00
2018-07-02T00:10:23.161Z,63.25
2018-07-02T00:12:52.194Z,63.22
2018-07-02T00:15:21.278Z,63.06
2018-07-02T00:17:50.366Z,63.13
2018-07-02T00:20:19.451Z,63.15
2018-07-02T00:22:48.522Z,63.58
2018-07-02T00:25:17.608Z,63.21
2018-07-02T00:27:46.677Z,63.58
2018-07-02T00:30:15.774Z,63.11
2018-07-02T00:32:45.404Z,63.25
2018-07-02T00:35:15.217Z,63.72
2018-07-02T00:37:44.252Z,63.74
2018-07-02T00:40:13.594Z,63.57
2018-07-02T00:42:43.675Z,63.22
2018-07-02T00:45:12.896Z,63.59
2018-07-02T00:47:42.055Z,63.21
2018-07-02T00:50:11.190Z,63.44
2018-07-02T00:52:40.227Z,63.25
2018-07-02T00:55:09.285Z,63.79
2018-07-02T00:57:38.357Z,63.28
2018-07-02T01:00:15.026Z,63.59
2018-07-02T01:02:44.424Z,63.58
2018-07-02T01:05:13.847Z,63.94
2018-07-02T01:07:44.209Z,63.75
2018-07-02T01:10:13.485Z,64.05
2018-07-02T01:12:42.573Z,64.00
2018-07-02T01:15:11.689Z,63.65
2018-07-02T01:17:40.808Z,63.95
2018-07-02T01:20:09.920Z,63.80
2018-07-02T01:22:39.074Z,63.94
2018-07-02T01:25:08.320Z,64.25
2018-07-02T01:27:37.395Z,64.39
2018-07-02T01:30:06.836Z,64.54
2018-07-02T01:32:35.905Z,64.92
2018-07-02T01:35:04.956Z,64.91
2018-07-02T01:37:34.061Z,65.19
2018-07-02T01:40:03.202Z,64.68
2018-07-02T01:42:32.318Z,64.84
2018-07-02T01:45:01.396Z,65.47
2018-07-02T01:47:30.499Z,65.71
2018-07-02T01:49:59.563Z,65.30
2018-07-02T01:52:28.623Z,65.57
2018-07-02T01:54:57.731Z,65.42
2018-07-02T01:57:26.806Z,65.81
2018-07-02T01:59:55.897Z,65.75
2018-07-02T02:02:25.023Z,65.71
2018-07-02T02:04:54.099Z,65.33
2018-07-02T02:07:23.752Z,65.58
2018-07-02T02:09:52.856Z,66.16
2018-07-02T02:12:22.062Z,66.02
2018-07-02T02:14:51.390Z,65.83
2018-07-02T02:17:21.052Z,66.15
2018-07-02T02:19:50.154Z,66.37
2018-07-02T02:22:19.212Z,66.20
2018-07-02T02:24:48.266Z,66.39
2018-07-02T02:27:17.484Z,67.16
2018-07-02T02:29:46.736Z,67.04
2018-07-02T02:32:16.604Z,66.91
2018-07-02T02:54:05.768Z,67.11
2018-07-02T02:56:34.820Z,67.07
2018-07-02T02:59:03.896Z,67.13
2018-07-02T03:01:33.104Z,66.94
2018-07-02T03:04:02.322Z,66.86
2018-07-02T03:06:31.390Z,66.83
2018-07-02T03:09:00.451Z,67.03
2018-07-02T03:11:29.526Z,66.94
2018-07-02T03:13:58.571Z,67.15
2018-07-02T03:16:27.655Z,67.11
2018-07-02T03:18:56.680Z,67.08
2018-07-02T03:21:25.747Z,67.40
2018-07-02T03:23:54.824Z,67.53
2018-07-02T03:26:23.883Z,67.39
2018-07-02T03:28:53.271Z,67.38
2018-07-02T03:31:22.378Z,67.28
2018-07-02T03:33:51.425Z,67.53
2018-07-02T03:36:20.478Z,67.22
2018-07-02T03:38:49.582Z,67.55
2018-07-02T03:41:18.632Z,67.58
2018-07-02T03:43:48.631Z,67.66
2018-07-02T03:46:18.535Z,67.88
2018-07-02T03:48:48.650Z,67.86
2018-07-02T03:51:18.573Z,67.88
2018-07-02T03:53:48.708Z,68.19
2018-07-02T04:01:10.584Z,68.19
2018-07-02T04:03:39.645Z,68.76
2018-07-02T04:18:41.153Z,68.64
2018-07-02T04:21:10.195Z,69.17
2018-07-02T04:23:39.237Z,69.74
2018-07-02T04:26:08.321Z,69.55
2018-07-02T04:28:37.375Z,69.62
2018-07-02T04:31:06.443Z,68.99
2018-07-02T04:33:35.521Z,68.82
2018-07-02T04:36:04.593Z,68.59
2018-07-02T04:38:33.705Z,68.41
2018-07-02T04:41:02.784Z,68.31
2018-07-02T04:43:31.863Z,67.60
2018-07-02T04:46:00.915Z,67.47
2018-07-02T04:48:30.052Z,67.57
2018-07-02T04:50:59.153Z,67.40
2018-07-02T04:53:28.220Z,67.14
2018-07-02T04:55:57.242Z,67.32
2018-07-02T04:58:26.264Z,66.18
2018-07-02T05:00:55.358Z,65.84
2018-07-02T05:03:24.801Z,65.37
2018-07-02T05:05:53.885Z,65.30
2018-07-02T05:08:23.205Z,65.15
2018-07-02T05:10:52.553Z,65.05
2018-07-02T05:13:21.612Z,64.70
2018-07-02T05:15:50.686Z,66.73
2018-07-02T05:18:20.147Z,64.49
2018-07-02T05:20:49.334Z,64.44
2018-07-02T05:23:19.895Z,64.33
2018-07-02T05:25:49.624Z,64.33
2018-07-02T05:28:19.451Z,64.27
2018-07-02T05:30:49.387Z,63.89
2018-07-02T05:33:19.330Z,64.01
2018-07-02T05:35:49.624Z,63.86
2018-07-02T05:38:19.401Z,64.22
2018-07-02T05:40:49.765Z,63.53
2018-07-02T05:43:50.211Z,62.69
2018-07-02T05:46:19.604Z,62.96
2018-07-02T05:48:49.510Z,62.10
2018-07-02T05:51:19.483Z,62.02
2018-07-02T05:53:49.522Z,62.18
2018-07-02T05:56:19.570Z,63.54
2018-07-02T05:58:49.867Z,62.22
2018-07-02T06:01:21.049Z,62.19
2018-07-02T06:03:50.192Z,61.44
2018-07-02T06:06:20.149Z,61.20
2018-07-02T06:08:50.043Z,61.26
2018-07-02T06:11:19.629Z,60.49
2018-07-02T06:13:50.176Z,61.64
2018-07-02T06:16:20.106Z,60.81
2018-07-02T06:18:49.733Z,59.14
2018-07-02T06:21:20.073Z,58.89
2018-07-02T06:26:25.086Z,57.05
2018-07-02T06:29:24.914Z,56.97
2018-07-02T06:31:54.059Z,55.60
2018-07-02T06:34:23.115Z,55.12
2018-07-02T06:36:52.137Z,55.17
2018-07-02T06:39:21.191Z,54.06
2018-07-02T06:41:50.225Z,54.23
2018-07-02T06:44:20.052Z,55.01
2018-07-02T06:46:49.953Z,53.48
2018-07-02T06:49:19.960Z,54.73
2018-07-02T06:51:49.966Z,53.72
2018-07-02T07:03:59.209Z,53.47
2018-07-02T07:06:29.166Z,52.25
2018-07-02T07:08:58.276Z,51.92
2018-07-02T07:11:27.372Z,51.01
2018-07-02T07:13:56.540Z,51.59
2018-07-02T07:16:25.594Z,50.98
2018-07-02T07:18:55.120Z,51.48
2018-07-02T07:21:24.572Z,50.92
2018-07-02T07:23:53.648Z,50.62
2018-07-02T07:26:22.730Z,51.31
2018-07-02T07:28:51.929Z,51.22
2018-07-02T07:31:20.954Z,49.59
2018-07-02T07:33:50.450Z,49.29
2018-07-02T07:36:20.618Z,50.87
2018-07-02T07:38:50.550Z,49.15
2018-07-02T07:41:20.432Z,48.43
2018-07-02T08:03:09.756Z,48.47
2018-07-02T08:05:42.796Z,47.78
2018-07-02T08:08:11.816Z,46.28
2018-07-02T08:10:41.105Z,47.17
2018-07-02T08:13:10.218Z,46.07
2018-07-02T08:15:39.710Z,45.34
2018-07-02T08:18:08.848Z,44.15
2018-07-02T08:20:37.875Z,46.02
2018-07-02T08:23:07.518Z,44.40
2018-07-02T08:25:36.938Z,45.19
2018-07-02T08:28:06.442Z,44.57
2018-07-02T08:30:35.499Z,45.81
2018-07-02T08:33:04.675Z,45.47
2018-07-02T08:35:34.540Z,45.19
2018-07-02T08:38:03.908Z,44.36
2018-07-02T08:40:32.970Z,44.38
2018-07-02T08:43:02.057Z,46.74
2018-07-02T08:45:31.085Z,44.49
2018-07-02T08:48:00.143Z,44.59
2018-07-02T08:50:29.197Z,44.39
2018-07-02T08:52:58.241Z,44.16
2018-07-02T08:55:27.418Z,44.68
2018-07-02T08:57:56.645Z,44.39
2018-07-02T09:00:25.724Z,47.10
2018-07-02T09:02:55.024Z,45.30
2018-07-02T09:05:24.562Z,44.64
2018-07-02T09:07:54.019Z,44.16
2018-07-02T09:10:23.147Z,44.21
2018-07-02T09:12:52.202Z,42.47
2018-07-02T09:15:21.659Z,43.20
2018-07-02T09:17:51.219Z,43.21
2018-07-02T09:20:21.554Z,42.76
2018-07-02T09:22:51.289Z,43.43
2018-07-02T09:25:21.809Z,41.49
2018-07-02T09:27:51.618Z,43.35
2018-07-02T09:30:21.635Z,42.63
2018-07-02T09:32:52.621Z,42.29
2018-07-02T09:35:21.932Z,41.93
2018-07-02T09:37:51.401Z,40.98
2018-07-02T09:40:21.728Z,41.98
2018-07-02T09:42:51.602Z,39.84
2018-07-02T09:45:21.969Z,43.34
2018-07-02T09:47:51.464Z,41.38
2018-07-02T09:50:21.797Z,42.47
2018-07-02T09:52:51.573Z,40.85
2018-07-02T09:55:22.006Z,42.31
2018-07-02T09:57:51.931Z,42.55
2018-07-02T10:00:21.863Z,45.60
2018-07-02T10:02:51.771Z,43.05
2018-07-02T10:05:22.022Z,42.62
2018-07-02T10:07:52.014Z,43.17
2018-07-02T10:10:22.865Z,43.00
2018-07-02T10:12:52.193Z,42.99
2018-07-02T10:15:22.173Z,42.09
2018-07-02T10:17:51.960Z,41.66
2018-07-02T10:20:22.041Z,41.25
2018-07-02T10:22:51.900Z,41.84
2018-07-02T10:25:21.868Z,41.36
2018-07-02T10:27:53.122Z,42.10
2018-07-02T10:30:22.191Z,41.06
2018-07-02T10:42:32.154Z,42.72
2018-07-02T10:45:03.483Z,40.72
2018-07-02T10:47:33.049Z,41.13
2018-07-02T10:50:02.165Z,42.90
2018-07-02T10:52:31.197Z,40.69
2018-07-02T10:55:00.478Z,42.23
2018-07-02T10:57:29.859Z,43.18
2018-07-02T10:59:59.615Z,41.26
2018-07-02T11:02:28.849Z,41.98
2018-07-02T11:04:57.998Z,38.81
2018-07-02T11:07:27.484Z,39.47
2018-07-02T11:09:56.573Z,40.81
2018-07-02T11:12:25.618Z,40.74
2018-07-02T11:14:54.665Z,39.90
2018-07-02T11:17:23.712Z,40.49
2018-07-02T11:19:52.777Z,39.63
2018-07-02T11:22:22.305Z,39.42
2018-07-02T11:24:52.253Z,39.22
2018-07-02T11:27:22.366Z,38.98
2018-07-02T11:29:52.453Z,39.01
2018-07-02T11:32:22.331Z,35.94
2018-07-02T11:34:52.459Z,39.65
2018-07-02T11:37:22.423Z,38.78
2018-07-02T11:39:52.505Z,40.06
2018-07-02T11:42:22.434Z,37.22
2018-07-02T11:44:52.531Z,38.70
2018-07-02T11:47:22.441Z,39.14
2018-07-02T12:12:27.276Z,37.45
2018-07-02T12:14:57.557Z,34.42
2018-07-02T12:17:26.661Z,32.63
2018-07-02T12:19:55.678Z,32.57
2018-07-02T12:22:25.038Z,38.81
2018-07-02T12:24:54.092Z,34.09
2018-07-02T12:27:23.196Z,38.14
2018-07-02T12:29:52.856Z,35.82
2018-07-02T12:32:23.013Z,38.15
2018-07-02T12:34:52.869Z,34.85
2018-07-02T12:37:21.978Z,32.83
2018-07-02T12:39:51.186Z,33.45
2018-07-02T12:42:20.228Z,39.67
2018-07-02T12:44:49.273Z,36.82
2018-07-02T12:47:18.337Z,37.18
2018-07-02T12:49:47.439Z,35.34
2018-07-02T12:52:16.508Z,36.31
2018-07-02T12:54:45.566Z,35.50
2018-07-02T12:57:14.594Z,36.01
2018-07-02T12:59:43.665Z,38.81
2018-07-02T13:02:12.722Z,35.88
2018-07-02T13:04:41.809Z,38.00
2018-07-02T13:07:10.880Z,37.58
2018-07-02T13:09:40.208Z,36.11
2018-07-02T13:12:09.284Z,38.50
2018-07-02T13:14:38.310Z,35.01
2018-07-02T13:17:07.529Z,35.28
2018-07-02T13:19:36.613Z,35.07
2018-07-02T13:22:05.662Z,35.62
2018-07-02T13:24:34.759Z,37.45
2018-07-02T13:27:03.924Z,36.37
2018-07-02T13:29:33.009Z,34.52
2018-07-02T13:32:02.072Z,34.88
2018-07-02T13:34:31.217Z,37.32
2018-07-02T13:37:00.284Z,36.56
2018-07-02T13:39:29.410Z,35.28
2018-07-02T13:41:58.506Z,34.83
2018-07-02T13:44:27.493Z,33.57
2018-07-02T13:46:56.573Z,34.98
2018-07-02T13:49:26.639Z,36.63
2018-07-02T13:51:56.108Z,34.65
2018-07-02T13:54:25.201Z,34.31
2018-07-02T13:56:54.262Z,33.56
2018-07-02T13:59:23.702Z,34.30
2018-07-02T14:01:53.583Z,33.34
2018-07-02T14:04:23.665Z,33.82
2018-07-02T14:06:53.730Z,32.27
2018-07-02T14:09:23.628Z,30.86
2018-07-02T14:11:52.652Z,31.45
2018-07-02T14:14:21.773Z,31.95
2018-07-02T14:16:50.831Z,30.50
2018-07-02T14:19:20.972Z,28.41
2018-07-02T14:21:50.078Z,28.47
2018-07-02T14:24:19.555Z,29.07
2018-07-02T14:26:48.845Z,28.41
2018-07-02T14:29:18.276Z,27.99
2018-07-02T14:31:47.308Z,26.41
2018-07-02T14:34:16.482Z,28.22
2018-07-02T14:36:45.953Z,25.61
2018-07-02T14:39:15.076Z,26.14
2018-07-02T14:41:44.206Z,26.62
2018-07-02T14:44:13.304Z,28.54
2018-07-02T14:46:43.048Z,24.75
2018-07-02T14:49:12.144Z,30.33
2018-07-02T14:51:41.857Z,24.75
2018-07-02T14:54:10.967Z,28.30
2018-07-02T14:56:40.051Z,24.86
2018-07-02T14:59:09.538Z,26.47
2018-07-02T15:01:38.585Z,24.63
2018-07-02T15:04:07.720Z,25.89
2018-07-02T15:06:36.807Z,24.09
2018-07-02T15:09:09.820Z,24.01
2018-07-02T15:11:39.184Z,24.31
2018-07-02T15:14:08.882Z,25.96
2018-07-02T15:16:37.974Z,25.29
2018-07-02T15:19:07.157Z,23.33
2018-07-02T15:21:36.306Z,25.25
2018-07-02T15:24:05.536Z,27.37
2018-07-02T15:26:34.748Z,25.33
2018-07-02T15:29:04.126Z,24.78
2018-07-02T15:31:33.526Z,26.16
2018-07-02T15:34:03.224Z,25.49
2018-07-02T15:36:32.916Z,23.42
2018-07-02T15:39:02.005Z,22.94
2018-07-02T15:41:31.537Z,22.46
2018-07-02T15:44:01.034Z,22.20
2018-07-02T15:46:31.530Z,25.14
2018-07-02T15:49:00.839Z,22.51
2018-07-02T15:51:29.935Z,22.65
2018-07-02T15:53:59.225Z,23.58
2018-07-02T15:56:28.586Z,23.28
2018-07-02T15:58:57.683Z,22.09
2018-07-02T16:01:27.231Z,22.48
2018-07-02T16:03:56.317Z,24.10
2018-07-02T16:06:25.384Z,23.88
2018-07-02T16:08:55.156Z,24.27
2018-07-02T16:11:25.085Z,24.11
2018-07-02T16:13:55.123Z,23.21
2018-07-02T16:16:24.841Z,24.59
2018-07-02T16:18:54.966Z,26.38
2018-07-02T16:21:25.257Z,24.82
2018-07-02T16:23:54.975Z,24.77
2018-07-02T16:26:24.939Z,25.45
2018-07-02T16:28:55.409Z,24.95
2018-07-02T16:31:25.252Z,26.33
2018-07-02T16:33:55.079Z,26.38
2018-07-02T16:36:25.137Z,26.73
2018-07-02T16:38:55.130Z,25.76
2018-07-02T16:41:25.354Z,27.38
2018-07-02T16:43:55.315Z,28.16
2018-07-02T16:46:25.190Z,28.98
2018-07-02T16:48:55.618Z,29.14
2018-07-02T16:51:25.996Z,29.64
2018-07-02T16:53:55.333Z,28.14
2018-07-02T16:56:25.387Z,28.83
2018-07-02T16:58:55.747Z,29.58
2018-07-02T17:01:25.556Z,28.58
2018-07-02T17:03:55.249Z,30.08
2018-07-02T17:28:59.606Z,30.00
2018-07-02T17:31:28.933Z,31.44
2018-07-02T17:33:58.166Z,32.90
2018-07-02T17:36:27.291Z,34.31
2018-07-02T17:38:56.344Z,35.46
2018-07-02T18:01:27.967Z,34.69
2018-07-02T18:07:35.255Z,34.45
2018-07-02T18:22:09.383Z,34.82
2018-07-02T18:24:38.575Z,34.29
2018-07-02T18:27:07.666Z,34.39
2018-07-02T18:29:36.790Z,33.97
2018-07-02T18:32:05.959Z,34.62
2018-07-02T18:34:35.051Z,35.83
2018-07-02T18:37:04.449Z,35.42
2018-07-02T18:39:33.566Z,35.35
2018-07-02T18:42:02.730Z,36.24
2018-07-02T18:44:31.826Z,36.90
2018-07-02T18:47:00.934Z,37.26
2018-07-02T18:49:30.006Z,36.93
2018-07-02T18:51:59.074Z,37.63
2018-07-02T18:54:28.251Z,37.92
2018-07-02T18:56:57.347Z,39.19
2018-07-02T18:59:26.607Z,40.27
2018-07-02T19:01:56.501Z,40.33
2018-07-02T19:04:26.317Z,41.24
2018-07-02T19:06:56.433Z,40.13
2018-07-02T19:09:26.807Z,42.75
2018-07-02T19:11:56.725Z,42.20
2018-07-02T19:14:26.605Z,44.40
2018-07-02T19:16:56.494Z,43.08
2018-07-02T19:19:26.749Z,45.43
2018-07-02T19:21:56.625Z,45.78
2018-07-02T19:24:26.708Z,47.33
2018-07-02T19:26:56.546Z,53.59
2018-07-02T19:29:26.863Z,57.83
2018-07-02T19:31:59.763Z,61.99
2018-07-02T19:34:28.921Z,58.89
2018-07-02T19:36:58.038Z,60.40
2018-07-02T19:39:27.125Z,60.38
2018-07-02T19:41:56.717Z,60.69
2018-07-02T19:44:26.781Z,59.24
2018-07-02T19:46:56.915Z,62.69
2018-07-02T19:49:26.826Z,62.94
2018-07-02T19:51:57.029Z,62.19
2018-07-02T19:54:26.788Z,64.99
2018-07-02T19:56:55.848Z,63.86
2018-07-02T19:59:25.012Z,64.79
2018-07-02T20:01:54.056Z,64.78
2018-07-02T20:04:23.143Z,64.74
2018-07-02T20:06:52.304Z,63.88
2018-07-02T20:09:21.327Z,63.42
2018-07-02T20:11:50.414Z,65.87
2018-07-02T20:14:19.479Z,66.05
2018-07-02T20:16:48.884Z,67.80
2018-07-02T20:19:18.371Z,67.43
2018-07-02T20:21:47.450Z,67.32
2018-07-02T20:24:16.535Z,67.19
2018-07-02T20:26:45.667Z,68.25
2018-07-02T20:29:14.793Z,68.76
2018-07-02T20:31:43.954Z,68.34
2018-07-02T20:34:13.028Z,66.00
2018-07-02T20:36:42.157Z,66.89
2018-07-02T20:39:12.411Z,65.71
2018-07-02T20:41:41.905Z,66.95
2018-07-02T20:44:10.990Z,68.17
2018-07-02T20:46:40.105Z,69.54
2018-07-02T20:49:09.195Z,69.03
2018-07-02T20:51:38.243Z,68.79
2018-07-02T20:54:07.794Z,66.58
2018-07-02T20:56:36.917Z,66.86
2018-07-02T20:59:06.011Z,68.22
2018-07-02T21:01:35.554Z,69.21
2018-07-02T21:04:05.226Z,67.60
2018-07-02T21:06:34.356Z,68.59
2018-07-02T21:09:04.655Z,69.11
2018-07-02T21:11:33.707Z,68.86
2018-07-02T21:14:02.964Z,70.01
2018-07-02T21:16:32.056Z,69.34
2018-07-02T21:19:01.137Z,69.88
2018-07-02T21:21:30.216Z,69.54
2018-07-02T21:23:59.486Z,69.93
2018-07-02T21:26:28.590Z,70.09
2018-07-02T21:28:57.789Z,71.19
2018-07-02T21:31:27.926Z,70.27
2018-07-02T21:33:57.756Z,70.32
2018-07-02T21:36:27.780Z,70.26
2018-07-02T21:38:58.063Z,71.05
2018-07-02T21:41:28.044Z,70.88
2018-07-02T21:43:57.911Z,70.09
2018-07-02T21:46:28.162Z,70.15
2018-07-02T21:48:57.761Z,71.18
2018-07-02T21:51:28.070Z,73.16
2018-07-02T21:53:57.979Z,72.91
2018-07-02T21:56:28.178Z,72.91
2018-07-02T21:58:57.910Z,72.97
2018-07-02T22:01:28.068Z,74.37
2018-07-02T22:03:57.877Z,73.21
2018-07-02T22:06:28.414Z,73.44
2018-07-02T22:08:57.906Z,72.65
2018-07-02T22:11:28.230Z,72.98
2018-07-02T22:13:58.058Z,73.13
2018-07-02T22:16:28.082Z,73.27
2018-07-02T22:18:58.324Z,73.45
2018-07-02T22:21:28.302Z,73.52
2018-07-02T22:23:58.535Z,73.94
2018-07-02T22:26:31.982Z,73.67
2018-07-02T22:29:01.202Z,73.50
2018-07-02T22:31:30.231Z,73.77
2018-07-02T22:33:59.571Z,73.73
2018-07-02T22:36:29.230Z,72.97
2018-07-02T22:38:58.939Z,74.39
2018-07-02T22:41:29.052Z,72.67
2018-07-02T22:43:58.549Z,73.16
2018-07-02T22:46:28.573Z,74.01
2018-07-02T22:48:58.262Z,73.44
2018-07-02T22:51:28.364Z,74.04
2018-07-02T22:53:58.719Z,74.09
2018-07-02T22:56:28.658Z,74.50
2018-07-02T22:58:58.661Z,74.58
2018-07-02T23:01:28.848Z,74.09
2018-07-02T23:03:58.538Z,74.86
2018-07-02T23:06:28.649Z,74.81
2018-07-02T23:08:58.748Z,74.45
2018-07-02T23:11:28.960Z,75.20
2018-07-02T23:13:58.573Z,76.02
2018-07-02T23:16:28.884Z,75.99
2018-07-02T23:18:58.608Z,76.34
2018-07-02T23:40:47.952Z,76.13
2018-07-02T23:43:17.039Z,76.95
2018-07-02T23:45:46.094Z,76.43
2018-07-02T23:48:15.144Z,76.22
2018-07-02T23:50:44.576Z,76.44
2018-07-02T23:53:13.753Z,75.99
2018-07-02T23:55:43.171Z,76.94
2018-07-02T23:58:12.308Z,75.70
